Time;durP1;ratioP1;P1;durP2;ratioP2;P2;SDS_P1;SDS_P2;PMS_P1;PMS_P2;Temp;Humidity;BMP_temperature;BMP_pressure;BME280_temperature;BME280_humidity;BME280_pressure;Samples;Min_cycle;Max_cycle;Signal;HPM_P1;HPM_P2
2022/07/30 00:00:46;;;;;;;3.50;1.63;;;22.50;68.30;;;;;;5033678;28;20739;-74
2022/07/30 00:03:13;;;;;;;2.03;1.60;;;22.50;68.40;;;;;;5034199;28;20302;-74
2022/07/30 00:05:40;;;;;;;2.50;2.10;;;22.50;68.70;;;;;;5045618;28;20216;-74
2022/07/30 00:08:06;;;;;;;5.20;2.30;;;22.50;68.50;;;;;;5038534;28;20180;-74
2022/07/30 00:10:33;;;;;;;2.83;1.90;;;22.40;68.40;;;;;;5030051;28;20237;-74
2022/07/30 00:12:59;;;;;;;2.13;1.60;;;22.40;68.60;;;;;;5038971;28;20196;-74
2022/07/30 00:15:26;;;;;;;4.63;1.83;;;22.40;68.80;;;;;;5044873;28;20188;-74
2022/07/30 00:17:52;;;;;;;3.13;2.10;;;22.30;68.90;;;;;;5034302;28;20280;-74
2022/07/30 00:20:19;;;;;;;3.53;2.10;;;22.20;68.70;;;;;;5039622;28;20216;-73
2022/07/30 00:22:45;;;;;;;2.63;1.97;;;22.30;69.40;;;;;;5041549;28;20739;-74
2022/07/30 00:25:12;;;;;;;2.67;1.97;;;22.40;69.00;;;;;;5049185;28;20583;-73
2022/07/30 00:27:39;;;;;;;3.20;2.20;;;22.30;69.30;;;;;;5029732;28;20188;-73
2022/07/30 00:30:06;;;;;;;2.90;1.60;;;22.30;69.80;;;;;;5044211;28;20183;-73
2022/07/30 00:32:35;;;;;;;3.00;1.97;;;22.30;69.90;;;;;;5041491;28;20513;-73
2022/07/30 00:35:02;;;;;;;6.03;1.90;;;22.30;69.30;;;;;;5044040;28;20547;-74
2022/07/30 00:37:29;;;;;;;2.80;1.80;;;22.30;69.30;;;;;;5031999;28;20171;-73
2022/07/30 00:39:55;;;;;;;2.30;1.97;;;22.30;69.70;;;;;;5031332;28;20176;-74
2022/07/30 00:42:24;;;;;;;6.03;2.00;;;22.30;69.90;;;;;;5047548;28;20853;-73
2022/07/30 00:44:52;;;;;;;2.93;1.87;;;22.30;69.30;;;;;;5050621;28;20196;-74
2022/07/30 00:47:19;;;;;;;2.63;1.90;;;22.30;69.80;;;;;;5034338;28;20255;-73
2022/07/30 00:49:47;;;;;;;4.37;2.20;;;22.20;69.70;;;;;;5032623;28;20195;-73
2022/07/30 00:52:13;;;;;;;7.63;2.00;;;22.20;69.90;;;;;;5035029;28;20174;-74
2022/07/30 00:54:39;;;;;;;2.43;1.93;;;22.20;70.40;;;;;;5049772;28;20189;-73
2022/07/30 00:57:05;;;;;;;7.30;1.90;;;22.30;69.60;;;;;;5053350;28;20187;-73
2022/07/30 00:59:34;;;;;;;3.03;2.03;;;22.20;69.80;;;;;;5050225;28;20222;-74
2022/07/30 01:02:02;;;;;;;3.70;2.00;;;22.20;69.90;;;;;;5066699;28;20199;-73
2022/07/30 01:04:29;;;;;;;8.47;1.80;;;22.20;69.20;;;;;;5050010;28;20200;-73
2022/07/30 01:06:56;;;;;;;7.90;1.97;;;22.10;68.60;;;;;;5049560;28;20196;-73
2022/07/30 01:09:22;;;;;;;2.40;2.00;;;22.00;69.10;;;;;;5051972;28;20172;-74
2022/07/30 01:11:51;;;;;;;2.77;1.90;;;22.10;69.90;;;;;;5049272;28;20667;-73
2022/07/30 01:14:18;;;;;;;3.33;2.10;;;22.10;70.20;;;;;;5051194;28;20184;-74
2022/07/30 01:16:46;;;;;;;5.23;2.03;;;22.10;70.60;;;;;;5050430;28;20219;-73
2022/07/30 01:19:54;;;;;;;5.43;2.20;;;22.10;70.00;;;;;;5042302;28;20826;-74
2022/07/30 01:22:27;;;;;;;1.97;1.60;;;22.00;69.90;;;;;;5048562;28;20205;-74
2022/07/30 01:25:33;;;;;;;3.03;1.80;;;22.10;70.30;;;;;;5030594;28;20229;-73
2022/07/30 01:28:10;;;;;;;3.80;2.10;;;22.10;70.50;;;;;;5043823;28;20508;-73
2022/07/30 01:30:41;;;;;;;3.70;2.30;;;21.90;72.20;;;;;;5047394;28;20192;-73
2022/07/30 01:33:13;;;;;;;3.07;2.40;;;21.90;73.60;;;;;;5022350;28;20630;-73
2022/07/30 01:35:41;;;;;;;3.80;2.50;;;21.90;74.50;;;;;;5032940;28;20222;-73
2022/07/30 01:38:15;;;;;;;3.20;2.10;;;21.80;75.00;;;;;;5049680;28;20183;-73
2022/07/30 01:40:45;;;;;;;4.60;2.40;;;21.80;75.90;;;;;;5047986;28;20294;-73
2022/07/30 01:43:13;;;;;;;3.10;2.50;;;21.80;77.30;;;;;;5041506;28;20216;-73
2022/07/30 01:45:41;;;;;;;3.40;2.33;;;21.90;80.00;;;;;;5031423;28;20195;-73
2022/07/30 01:48:11;;;;;;;4.87;2.80;;;21.90;82.40;;;;;;5047509;28;20179;-73
2022/07/30 01:50:45;;;;;;;3.17;2.67;;;22.00;82.70;;;;;;5029175;28;20215;-74
2022/07/30 01:53:24;;;;;;;6.00;2.73;;;22.00;83.40;;;;;;5047431;28;20845;-73
2022/07/30 01:55:54;;;;;;;3.93;2.90;;;22.00;84.40;;;;;;5013449;28;20274;-74
2022/07/30 01:58:28;;;;;;;4.63;2.70;;;22.00;84.60;;;;;;5035490;28;20260;-73
2022/07/30 02:00:57;;;;;;;4.67;3.00;;;21.90;85.30;;;;;;5031724;28;20341;-73
2022/07/30 02:03:26;;;;;;;7.87;3.20;;;21.90;86.10;;;;;;5026336;28;20212;-73
2022/07/30 02:06:02;;;;;;;6.10;3.07;;;21.80;87.20;;;;;;5050596;28;20210;-73
2022/07/30 02:08:54;;;;;;;4.93;3.30;;;21.70;88.10;;;;;;5029991;28;20190;-73
2022/07/30 02:14:16;;;;;;;7.73;3.30;;;21.70;90.00;;;;;;5050059;28;20188;-73
2022/07/30 02:16:52;;;;;;;6.50;3.60;;;21.80;90.50;;;;;;5047278;28;20554;-73
2022/07/30 02:19:21;;;;;;;6.73;3.30;;;21.80;91.00;;;;;;5045030;28;20180;-73
2022/07/30 02:21:58;;;;;;;6.77;3.63;;;21.70;91.80;;;;;;5047683;28;20609;-73
2022/07/30 02:24:28;;;;;;;6.90;3.60;;;21.70;93.00;;;;;;5050524;28;20267;-73
2022/07/30 02:27:07;;;;;;;6.07;3.50;;;21.60;93.50;;;;;;5049052;28;20187;-73
2022/07/30 02:29:36;;;;;;;5.70;3.37;;;21.60;94.00;;;;;;5044700;28;20321;-73
2022/07/30 02:32:13;;;;;;;9.17;4.20;;;21.70;94.00;;;;;;5036763;28;20274;-73
2022/07/30 02:34:42;;;;;;;8.10;3.97;;;21.70;98.40;;;;;;5048039;28;20593;-73
2022/07/30 02:37:13;;;;;;;7.50;4.20;;;21.80;97.60;;;;;;5036601;28;20183;-73
2022/07/30 02:39:43;;;;;;;7.17;4.27;;;21.90;98.60;;;;;;5029416;28;20191;-73
2022/07/30 02:42:14;;;;;;;9.80;4.67;;;21.90;99.90;;;;;;5044906;28;20211;-73
2022/07/30 02:44:44;;;;;;;6.10;3.90;;;21.80;99.90;;;;;;5042546;28;20188;-73
2022/07/30 02:47:12;;;;;;;6.67;3.77;;;21.80;99.90;;;;;;5046462;28;20180;-73
2022/07/30 02:49:41;;;;;;;4.97;3.50;;;21.80;99.20;;;;;;5039918;28;20279;-73
2022/07/30 02:52:12;;;;;;;7.17;3.90;;;21.90;96.30;;;;;;5030227;28;20187;-72
2022/07/30 02:54:41;;;;;;;4.80;3.60;;;21.90;95.90;;;;;;5051772;28;20218;-73
2022/07/30 02:57:09;;;;;;;6.33;3.23;;;21.90;94.10;;;;;;5052804;28;20183;-73
2022/07/30 02:59:40;;;;;;;5.53;3.20;;;21.90;93.20;;;;;;5052367;28;20187;-72
2022/07/30 03:02:10;;;;;;;3.97;2.73;;;21.90;90.40;;;;;;5052819;28;20203;-73
2022/07/30 03:04:38;;;;;;;3.13;2.63;;;21.90;85.90;;;;;;5050838;28;20187;-73
2022/07/30 03:07:07;;;;;;;2.70;2.50;;;21.90;85.20;;;;;;5032891;28;20208;-73
2022/07/30 03:09:34;;;;;;;2.73;2.23;;;21.90;81.60;;;;;;5054197;28;20194;-73
2022/07/30 03:12:02;;;;;;;4.67;2.40;;;21.90;80.10;;;;;;5047625;28;20207;-73
2022/07/30 03:14:30;;;;;;;4.57;2.60;;;21.90;79.00;;;;;;5068927;28;20512;-73
2022/07/30 03:16:59;;;;;;;4.23;2.57;;;21.90;78.90;;;;;;5047647;28;20210;-73
2022/07/30 03:19:32;;;;;;;4.00;2.43;;;21.90;77.00;;;;;;5052163;28;20191;-73
2022/07/30 03:22:02;;;;;;;3.10;2.17;;;22.00;78.10;;;;;;5053154;28;20219;-73
2022/07/30 03:24:30;;;;;;;4.47;2.30;;;22.10;77.40;;;;;;5046973;28;20210;-73
2022/07/30 03:26:59;;;;;;;3.00;2.40;;;22.10;76.90;;;;;;5051163;28;20191;-73
2022/07/30 03:29:28;;;;;;;2.70;2.10;;;22.10;76.10;;;;;;5051841;28;20191;-73
2022/07/30 03:31:56;;;;;;;3.50;2.37;;;22.20;74.00;;;;;;5052222;28;20643;-73
2022/07/30 03:34:24;;;;;;;5.23;2.30;;;22.20;74.40;;;;;;5050222;28;20288;-72
2022/07/30 03:36:52;;;;;;;2.50;2.10;;;22.20;73.20;;;;;;5049504;28;20224;-73
2022/07/30 03:39:20;;;;;;;3.00;2.20;;;22.30;73.10;;;;;;5045633;28;20188;-73
2022/07/30 03:41:49;;;;;;;3.73;2.33;;;22.30;73.20;;;;;;5042676;28;20302;-72
2022/07/30 03:44:16;;;;;;;3.37;2.10;;;22.30;72.30;;;;;;5048277;28;20631;-73
2022/07/30 03:46:44;;;;;;;3.77;2.30;;;22.30;72.50;;;;;;5053132;28;20291;-73
2022/07/30 03:49:12;;;;;;;2.67;2.20;;;22.40;73.80;;;;;;5052114;28;20184;-73
2022/07/30 03:51:40;;;;;;;3.50;2.30;;;22.40;74.60;;;;;;5051775;28;20227;-73
2022/07/30 03:54:09;;;;;;;5.90;2.33;;;22.50;73.70;;;;;;5051010;28;20207;-74
2022/07/30 03:56:36;;;;;;;5.10;2.10;;;22.70;73.10;;;;;;5048487;28;20263;-73
2022/07/30 03:59:04;;;;;;;2.30;2.10;;;22.80;72.20;;;;;;5015373;28;20187;-74
2022/07/30 04:01:30;;;;;;;4.63;2.17;;;22.90;71.20;;;;;;5041250;28;20207;-74
2022/07/30 04:04:08;;;;;;;4.20;2.20;;;23.00;71.20;;;;;;5051508;28;20183;-74
2022/07/30 04:06:39;;;;;;;3.53;2.20;;;23.10;70.30;;;;;;5046963;28;20256;-74
2022/07/30 04:09:11;;;;;;;4.27;2.40;;;23.10;69.80;;;;;;5032039;28;20278;-74
2022/07/30 04:11:41;;;;;;;2.40;2.00;;;23.30;70.40;;;;;;5030687;28;20214;-72
2022/07/30 04:14:08;;;;;;;3.80;1.97;;;23.30;70.30;;;;;;5029905;28;20732;-72
2022/07/30 04:16:53;;;;;;;3.10;2.60;;;23.50;70.40;;;;;;5065112;28;20187;-72
2022/07/30 04:19:37;;;;;;;5.32;2.20;;;23.60;70.60;;;;;;5048555;28;20183;-74
2022/07/30 04:22:07;;;;;;;7.53;2.37;;;23.70;71.10;;;;;;5047893;28;20235;-73
2022/07/30 04:24:36;;;;;;;2.93;2.40;;;23.90;70.80;;;;;;5049365;28;20184;-74
2022/07/30 04:27:03;;;;;;;4.50;2.30;;;23.90;71.00;;;;;;5047711;28;20531;-74
2022/07/30 04:29:29;;;;;;;2.63;2.05;;;24.00;70.60;;;;;;5051510;28;20167;-74
2022/07/30 04:31:56;;;;;;;4.00;1.80;;;24.10;69.50;;;;;;5042083;28;20200;-74
2022/07/30 04:34:22;;;;;;;5.50;2.25;;;24.20;68.80;;;;;;5049204;28;20191;-74
2022/07/30 04:36:49;;;;;;;2.35;1.83;;;24.30;67.90;;;;;;5051374;28;20183;-74
2022/07/30 04:39:15;;;;;;;3.07;1.97;;;24.40;66.70;;;;;;5052747;28;20186;-73
2022/07/30 04:41:41;;;;;;;2.17;1.70;;;24.50;65.90;;;;;;5040392;28;20218;-74
2022/07/30 04:44:08;;;;;;;4.68;1.90;;;24.90;64.30;;;;;;5030065;28;20176;-74
2022/07/30 04:46:34;;;;;;;3.25;2.03;;;25.40;63.00;;;;;;5048915;28;20314;-74
2022/07/30 04:49:02;;;;;;;3.58;1.77;;;25.60;63.00;;;;;;5046869;28;20189;-73
2022/07/30 04:51:35;;;;;;;2.15;1.40;;;25.60;63.50;;;;;;5048477;28;20219;-74
2022/07/30 04:54:05;;;;;;;4.13;1.95;;;25.60;62.90;;;;;;5052194;28;20218;-73
2022/07/30 04:56:35;;;;;;;3.58;1.80;;;25.70;63.60;;;;;;5034190;28;20203;-73
2022/07/30 04:59:02;;;;;;;4.43;1.80;;;25.60;63.90;;;;;;5050505;28;20205;-72
2022/07/30 05:01:36;;;;;;;1.70;1.60;;;25.60;64.30;;;;;;5048085;28;20196;-72
2022/07/30 05:04:04;;;;;;;4.78;1.90;;;25.30;66.20;;;;;;5045659;28;20290;-73
2022/07/30 05:06:31;;;;;;;6.22;1.77;;;25.20;66.70;;;;;;5042554;28;20190;-72
2022/07/30 05:08:59;;;;;;;6.35;2.30;;;25.10;67.00;;;;;;5052015;28;20501;-71
2022/07/30 05:11:25;;;;;;;2.60;2.20;;;25.10;67.20;;;;;;5049873;28;20567;-72
2022/07/30 05:13:52;;;;;;;3.42;1.73;;;25.10;67.20;;;;;;5045834;28;20211;-71
2022/07/30 05:16:18;;;;;;;2.85;1.90;;;25.10;66.90;;;;;;5047671;28;20187;-72
2022/07/30 05:18:45;;;;;;;2.08;1.60;;;25.20;68.10;;;;;;5050301;28;20195;-71
2022/07/30 05:21:11;;;;;;;3.65;1.95;;;25.10;69.80;;;;;;5062734;28;20238;-73
2022/07/30 05:23:37;;;;;;;4.65;1.90;;;25.10;69.70;;;;;;5046889;28;20227;-71
2022/07/30 05:26:03;;;;;;;3.90;2.17;;;25.20;70.80;;;;;;5039447;28;20219;-74
2022/07/30 05:28:30;;;;;;;4.32;1.80;;;25.20;72.90;;;;;;5018533;28;20185;-71
2022/07/30 05:30:56;;;;;;;5.53;2.60;;;25.10;71.90;;;;;;5049347;28;20187;-74
2022/07/30 05:33:23;;;;;;;3.78;2.25;;;25.20;72.40;;;;;;5033544;28;20190;-74
2022/07/30 05:35:50;;;;;;;3.35;2.22;;;25.30;71.80;;;;;;5030643;28;20200;-74
2022/07/30 05:38:17;;;;;;;4.93;2.47;;;25.40;72.90;;;;;;5016318;28;20183;-74
2022/07/30 05:40:45;;;;;;;2.58;2.15;;;25.40;73.90;;;;;;5044644;28;20264;-74
2022/07/30 05:43:12;;;;;;;3.63;2.30;;;25.40;74.10;;;;;;5050073;28;20184;-74
2022/07/30 05:45:38;;;;;;;5.65;2.30;;;25.40;73.90;;;;;;5039100;28;20672;-73
2022/07/30 05:48:05;;;;;;;6.22;2.38;;;25.40;74.20;;;;;;5046102;28;20528;-74
2022/07/30 05:50:31;;;;;;;6.00;2.22;;;25.50;74.00;;;;;;5049465;28;20195;-74
2022/07/30 05:52:58;;;;;;;4.05;2.30;;;25.60;73.80;;;;;;5049239;28;20192;-74
2022/07/30 05:55:24;;;;;;;4.22;2.30;;;25.70;74.40;;;;;;5032641;28;20278;-74
2022/07/30 05:57:51;;;;;;;5.10;2.38;;;25.70;74.60;;;;;;5024659;28;20218;-74
2022/07/30 06:00:18;;;;;;;3.33;2.28;;;25.90;74.30;;;;;;5046584;28;20187;-74
2022/07/30 06:02:44;;;;;;;4.47;2.53;;;25.90;74.00;;;;;;5049088;28;20803;-73
2022/07/30 06:05:11;;;;;;;5.25;2.45;;;26.00;74.20;;;;;;5037151;28;20179;-73
2022/07/30 06:07:39;;;;;;;4.43;2.50;;;26.10;75.20;;;;;;5038102;28;20234;-72
2022/07/30 06:10:06;;;;;;;4.28;2.63;;;26.20;76.70;;;;;;5049774;28;20175;-72
2022/07/30 06:12:32;;;;;;;5.70;2.90;;;26.30;78.60;;;;;;5064431;28;20294;-73
2022/07/30 06:14:58;;;;;;;9.15;2.80;;;26.40;80.20;;;;;;5031152;28;20199;-72
2022/07/30 06:17:25;;;;;;;7.03;2.95;;;26.40;80.50;;;;;;5057372;28;20175;-72
2022/07/30 06:19:52;;;;;;;8.00;3.20;;;26.40;80.70;;;;;;5046278;28;20191;-72
2022/07/30 06:22:19;;;;;;;8.75;3.28;;;26.50;83.10;;;;;;5021865;28;20207;-72
2022/07/30 06:24:45;;;;;;;3.53;2.85;;;26.60;82.50;;;;;;5050910;28;20579;-74
2022/07/30 06:27:13;;;;;;;4.97;3.47;;;26.70;84.20;;;;;;5045047;28;20184;-74
2022/07/30 06:29:40;;;;;;;7.63;3.60;;;26.80;86.60;;;;;;5035876;28;20187;-73
2022/07/30 06:32:06;;;;;;;10.85;4.05;;;26.80;87.10;;;;;;5034199;28;20983;-74
2022/07/30 06:34:34;;;;;;;5.32;3.40;;;26.90;88.60;;;;;;5043467;28;20191;-72
2022/07/30 06:37:01;;;;;;;7.00;3.95;;;27.00;88.70;;;;;;5049923;28;20250;-72
2022/07/30 06:39:27;;;;;;;8.13;3.60;;;27.00;90.30;;;;;;5043716;28;20249;-73
2022/07/30 06:41:53;;;;;;;7.53;3.22;;;27.10;90.10;;;;;;5045852;28;20195;-73
2022/07/30 06:44:20;;;;;;;5.72;3.10;;;27.20;89.20;;;;;;5054045;28;20536;-73
2022/07/30 06:46:46;;;;;;;4.43;3.55;;;27.30;85.70;;;;;;5033406;28;20202;-73
2022/07/30 06:49:13;;;;;;;4.72;3.60;;;27.30;84.90;;;;;;5046093;28;20632;-74
2022/07/30 06:51:39;;;;;;;4.07;3.05;;;27.30;84.60;;;;;;5043193;28;20188;-73
2022/07/30 06:54:07;;;;;;;6.38;3.35;;;27.40;85.60;;;;;;5047799;28;20195;-74
2022/07/30 06:56:36;;;;;;;8.77;3.40;;;27.50;85.00;;;;;;5036207;28;20183;-74
2022/07/30 06:59:03;;;;;;;6.85;3.55;;;27.50;85.60;;;;;;5047020;28;20188;-74
2022/07/30 07:01:30;;;;;;;7.80;3.50;;;27.60;86.40;;;;;;5035773;28;20211;-74
2022/07/30 07:03:57;;;;;;;6.95;3.47;;;27.70;87.00;;;;;;5044913;28;20192;-73
2022/07/30 07:06:23;;;;;;;7.60;3.40;;;27.70;86.00;;;;;;5046921;28;20191;-73
2022/07/30 07:08:49;;;;;;;8.75;3.67;;;27.90;86.30;;;;;;5049973;28;20180;-74
2022/07/30 07:11:15;;;;;;;5.65;3.90;;;28.00;87.80;;;;;;5048174;28;20243;-73
2022/07/30 07:13:42;;;;;;;9.38;3.72;;;28.10;89.50;;;;;;5040462;28;20202;-74
2022/07/30 07:16:08;;;;;;;6.03;3.78;;;28.10;89.20;;;;;;5047918;28;20196;-74
2022/07/30 07:18:36;;;;;;;4.85;3.47;;;28.20;87.90;;;;;;5047000;28;20203;-73
2022/07/30 07:21:03;;;;;;;5.07;3.50;;;28.20;87.60;;;;;;5038284;28;20211;-74
2022/07/30 07:23:30;;;;;;;9.05;3.80;;;28.20;89.20;;;;;;5055696;28;20190;-73
2022/07/30 07:25:56;;;;;;;7.25;3.67;;;28.20;87.60;;;;;;5049578;28;20509;-74
2022/07/30 07:28:23;;;;;;;6.50;3.60;;;28.30;86.30;;;;;;5039454;28;20694;-71
2022/07/30 07:30:50;;;;;;;6.13;3.63;;;28.40;88.80;;;;;;5031682;28;20188;-74
2022/07/30 07:33:20;;;;;;;6.32;3.80;;;28.50;89.60;;;;;;5017962;28;20882;-74
2022/07/30 07:35:49;;;;;;;7.97;4.13;;;28.60;90.00;;;;;;5032443;28;20211;-74
2022/07/30 07:38:17;;;;;;;6.82;4.20;;;28.60;91.80;;;;;;5031027;28;20527;-74
2022/07/30 07:40:46;;;;;;;6.20;4.22;;;28.70;93.10;;;;;;5031740;28;20208;-74
2022/07/30 07:43:13;;;;;;;8.50;4.32;;;28.70;93.20;;;;;;5023242;28;20250;-74
2022/07/30 07:45:44;;;;;;;6.18;4.18;;;28.90;93.40;;;;;;5048511;28;20192;-74
2022/07/30 07:48:12;;;;;;;5.07;3.83;;;28.90;92.90;;;;;;5032275;28;20180;-74
2022/07/30 07:50:39;;;;;;;7.05;4.00;;;29.00;92.00;;;;;;5042377;28;20192;-74
2022/07/30 07:53:08;;;;;;;6.40;3.88;;;29.00;92.40;;;;;;5031731;28;20184;-74
2022/07/30 07:55:34;;;;;;;7.03;4.13;;;29.10;93.00;;;;;;5049015;28;20852;-74
2022/07/30 07:58:05;;;;;;;9.10;4.13;;;29.10;92.80;;;;;;5042987;28;20277;-74
2022/07/30 08:00:33;;;;;;;9.68;4.40;;;29.20;92.70;;;;;;4943398;28;20301;-74
2022/07/30 08:03:00;;;;;;;7.05;4.20;;;29.30;92.70;;;;;;5030057;28;20220;-74
2022/07/30 08:05:26;;;;;;;16.10;4.53;;;29.30;92.80;;;;;;5035966;28;20257;-74
2022/07/30 08:07:53;;;;;;;11.38;4.65;;;29.30;92.60;;;;;;5039377;28;20208;-75
2022/07/30 08:10:20;;;;;;;7.90;4.68;;;29.40;93.10;;;;;;5029329;28;20519;-75
2022/07/30 08:12:46;;;;;;;8.13;4.85;;;29.50;94.40;;;;;;5015260;28;20310;-75
2022/07/30 08:15:13;;;;;;;8.25;4.63;;;29.50;94.90;;;;;;5041216;28;20225;-75
2022/07/30 08:17:46;;;;;;;10.50;4.43;;;29.60;94.20;;;;;;5016208;28;20278;-75
2022/07/30 08:20:17;;;;;;;13.05;4.93;;;29.50;94.50;;;;;;5032586;28;20227;-75
2022/07/30 08:22:46;;;;;;;12.40;4.85;;;29.60;94.20;;;;;;5037856;28;20212;-76
2022/07/30 08:25:13;;;;;;;8.10;4.47;;;29.50;94.30;;;;;;5024296;28;20203;-75
2022/07/30 08:27:47;;;;;;;10.38;4.95;;;29.70;94.30;;;;;;5041572;28;20215;-75
2022/07/30 08:30:14;;;;;;;10.98;4.85;;;29.80;94.50;;;;;;5056048;28;20478;-75
2022/07/30 08:32:40;;;;;;;7.22;4.32;;;29.90;94.60;;;;;;5051577;28;20204;-75
2022/07/30 08:35:11;;;;;;;8.00;4.60;;;29.90;92.60;;;;;;5021744;28;20214;-75
2022/07/30 08:37:41;;;;;;;6.43;4.00;;;30.00;92.60;;;;;;5023740;28;20207;-74
2022/07/30 08:40:11;;;;;;;6.25;3.75;;;30.10;92.40;;;;;;5039729;28;20239;-75
2022/07/30 08:42:39;;;;;;;9.73;3.75;;;30.20;91.30;;;;;;5028950;28;20239;-74
2022/07/30 08:45:07;;;;;;;8.32;3.53;;;30.30;89.00;;;;;;5028723;28;20200;-75
2022/07/30 08:47:38;;;;;;;8.35;4.10;;;30.30;89.00;;;;;;5036475;28;20719;-75
2022/07/30 08:50:08;;;;;;;7.32;3.72;;;30.30;90.30;;;;;;5011661;28;20253;-75
2022/07/30 08:52:37;;;;;;;9.32;3.70;;;30.50;90.60;;;;;;5028808;28;20402;-75
2022/07/30 08:55:07;;;;;;;12.52;4.05;;;30.60;89.70;;;;;;5026650;28;20207;-74
2022/07/30 08:57:35;;;;;;;5.75;3.83;;;30.70;89.30;;;;;;5025670;28;20196;-76
2022/07/30 09:00:06;;;;;;;6.90;4.20;;;30.80;89.70;;;;;;5024326;28;20203;-75
2022/07/30 09:02:35;;;;;;;7.18;3.83;;;30.80;88.60;;;;;;5025741;28;20237;-75
2022/07/30 09:05:01;;;;;;;6.72;3.58;;;30.90;89.90;;;;;;5031855;28;20311;-76
2022/07/30 09:07:28;;;;;;;8.27;4.45;;;31.00;90.90;;;;;;5051137;28;20208;-76
2022/07/30 09:09:57;;;;;;;6.13;4.05;;;31.10;90.90;;;;;;5039422;28;20568;-75
2022/07/30 09:12:39;;;;;;;7.03;4.13;;;31.20;90.10;;;;;;5038324;28;20203;-75
2022/07/30 09:15:07;;;;;;;8.48;4.57;;;31.30;90.60;;;;;;5051591;28;20195;-75
2022/07/30 09:17:58;;;;;;;8.55;4.35;;;31.40;91.70;;;;;;5039019;28;20203;-75
2022/07/30 09:20:32;;;;;;;8.75;4.43;;;31.50;91.60;;;;;;5019640;28;20250;-74
2022/07/30 09:23:02;;;;;;;10.98;4.13;;;31.60;91.90;;;;;;5042750;28;20552;-75
2022/07/30 09:25:44;;;;;;;9.02;4.82;;;31.70;91.40;;;;;;5035879;28;20209;-75
2022/07/30 09:28:12;;;;;;;10.45;4.47;;;31.70;91.50;;;;;;5022175;28;20202;-75
2022/07/30 09:30:52;;;;;;;10.05;4.65;;;31.80;91.50;;;;;;5026263;28;20540;-75
2022/07/30 09:33:40;;;;;;;11.07;4.63;;;31.80;93.20;;;;;;5026403;28;20517;-75
2022/07/30 09:36:10;;;;;;;10.23;5.18;;;31.90;93.10;;;;;;5023459;28;21019;-75
2022/07/30 09:38:54;;;;;;;12.73;5.72;;;32.10;94.80;;;;;;5023047;28;20236;-75
2022/07/30 09:41:36;;;;;;;14.63;5.40;;;32.00;95.40;;;;;;5032536;28;20715;-75
2022/07/30 09:44:04;;;;;;;11.32;5.32;;;32.10;95.80;;;;;;5032524;28;20215;-75
2022/07/30 09:46:46;;;;;;;11.13;5.38;;;32.10;96.60;;;;;;5021246;28;20200;-75
2022/07/30 09:49:25;;;;;;;13.27;5.32;;;32.20;95.80;;;;;;5021876;28;20192;-75
2022/07/30 09:51:54;;;;;;;14.65;5.90;;;32.40;97.20;;;;;;5039675;28;20208;-75
2022/07/30 09:54:21;;;;;;;12.88;6.05;;;32.40;97.10;;;;;;5031930;28;20280;-74
2022/07/30 09:57:04;;;;;;;10.57;5.78;;;32.40;97.30;;;;;;5041513;28;20265;-75
2022/07/30 09:59:32;;;;;;;19.35;6.30;;;32.50;98.00;;;;;;5040914;28;20294;-75
2022/07/30 10:01:58;;;;;;;15.18;5.97;;;32.50;97.60;;;;;;5039592;28;20211;-73
2022/07/30 10:04:31;;;;;;;12.60;6.28;;;32.40;98.50;;;;;;5038317;28;20196;-73
2022/07/30 10:07:00;;;;;;;10.00;5.18;;;32.40;98.40;;;;;;5005242;23;20591;-76
2022/07/30 10:09:31;;;;;;;9.38;5.90;;;32.50;97.50;;;;;;4976982;28;20292;-77
2022/07/30 10:12:04;;;;;;;9.77;5.80;;;32.60;98.20;;;;;;4974939;28;20608;-76
2022/07/30 10:14:37;;;;;;;12.05;6.38;;;32.60;98.00;;;;;;4962664;28;20276;-76
2022/07/30 10:17:04;;;;;;;8.95;5.68;;;32.60;98.70;;;;;;4970979;28;20268;-77
2022/07/30 10:19:32;;;;;;;14.05;5.95;;;32.70;98.80;;;;;;4942339;28;20264;-76
2022/07/30 10:22:00;;;;;;;11.52;6.30;;;32.80;98.80;;;;;;4961492;28;21135;-77
2022/07/30 10:24:30;;;;;;;16.33;6.28;;;32.90;98.70;;;;;;4978530;28;20252;-77
2022/07/30 10:26:57;;;;;;;13.40;6.30;;;33.00;98.50;;;;;;4982167;28;20695;-76
2022/07/30 10:29:23;;;;;;;14.00;6.22;;;33.00;98.40;;;;;;4969855;28;20201;-76
2022/07/30 10:31:50;;;;;;;11.23;6.32;;;33.10;98.80;;;;;;4960288;28;20283;-76
2022/07/30 10:34:20;;;;;;;14.98;6.63;;;33.00;98.50;;;;;;4977147;28;20790;-76
2022/07/30 10:36:56;;;;;;;14.05;6.65;;;33.00;98.90;;;;;;4976118;28;20229;-76
2022/07/30 10:39:36;;;;;;;12.90;5.65;;;33.20;98.50;;;;;;4977991;28;20798;-76
2022/07/30 10:42:32;;;;;;;11.23;6.32;;;33.20;97.90;;;;;;4977122;28;20225;-76
2022/07/30 10:45:26;;;;;;;13.70;5.60;;;33.10;98.00;;;;;;4971154;28;20629;-77
2022/07/30 10:47:55;;;;;;;17.02;6.35;;;33.20;98.00;;;;;;4958051;28;20210;-77
2022/07/30 10:50:27;;;;;;;7.88;5.80;;;33.30;97.90;;;;;;4970701;28;20706;-76
2022/07/30 10:53:02;;;;;;;11.15;6.38;;;33.30;97.70;;;;;;4944246;28;20586;-76
2022/07/30 10:55:33;;;;;;;11.35;6.18;;;33.20;97.80;;;;;;4958941;28;20281;-76
2022/07/30 10:58:12;;;;;;;10.90;5.82;;;33.10;97.80;;;;;;4958246;28;20875;-75
2022/07/30 11:00:51;;;;;;;10.07;6.38;;;33.20;97.70;;;;;;4958675;28;20625;-76
2022/07/30 11:03:25;;;;;;;13.70;6.40;;;33.10;98.00;;;;;;4960912;28;20226;-76
2022/07/30 11:06:13;;;;;;;12.25;6.32;;;33.30;97.70;;;;;;4961460;28;20268;-76
2022/07/30 11:08:44;;;;;;;15.88;6.60;;;33.10;98.00;;;;;;4959130;28;20210;-76
2022/07/30 11:11:36;;;;;;;13.13;6.47;;;33.00;97.90;;;;;;4961465;28;20210;-76
2022/07/30 11:14:03;;;;;;;9.77;5.78;;;32.90;98.10;;;;;;4942757;28;20221;-76
2022/07/30 11:16:32;;;;;;;10.57;6.20;;;33.00;98.00;;;;;;4962254;28;20741;-76
2022/07/30 11:19:16;;;;;;;9.57;6.07;;;33.00;98.60;;;;;;4963968;28;20657;-76
2022/07/30 11:22:27;;;;;;;14.65;6.25;;;33.00;98.30;;;;;;4963853;28;21162;-76
2022/07/30 11:24:54;;;;;;;10.45;6.10;;;32.90;98.50;;;;;;4947449;28;20210;-76
2022/07/30 11:27:47;;;;;;;13.43;6.80;;;32.60;98.50;;;;;;4964755;28;20285;-76
2022/07/30 11:30:17;;;;;;;9.65;6.47;;;32.50;99.20;;;;;;4948322;28;20205;-76
2022/07/30 11:32:52;;;;;;;12.38;6.93;;;32.40;99.10;;;;;;4962991;28;20314;-76
2022/07/30 11:35:26;;;;;;;12.98;6.60;;;32.40;99.40;;;;;;4963495;28;20212;-76
2022/07/30 11:38:17;;;;;;;9.40;6.35;;;32.30;99.30;;;;;;4966503;28;20898;-76
2022/07/30 11:40:49;;;;;;;13.75;6.45;;;32.40;99.20;;;;;;4967547;28;20218;-76
2022/07/30 11:43:35;;;;;;;10.60;6.53;;;32.50;98.80;;;;;;4972297;28;20221;-76
2022/07/30 11:46:13;;;;;;;14.07;6.55;;;32.50;98.90;;;;;;4973711;28;20298;-76
2022/07/30 11:48:58;;;;;;;12.13;6.85;;;32.60;98.70;;;;;;4947577;28;20243;-76
2022/07/30 11:51:45;;;;;;;10.82;6.40;;;32.60;98.60;;;;;;4946296;28;20229;-76
2022/07/30 11:54:12;;;;;;;13.25;7.30;;;32.40;98.80;;;;;;4964316;28;20206;-76
2022/07/30 11:56:56;;;;;;;12.70;6.50;;;32.40;98.30;;;;;;4963871;28;20588;-76
2022/07/30 11:59:23;;;;;;;14.60;6.68;;;32.40;99.00;;;;;;4947306;28;20258;-76
2022/07/30 12:01:52;;;;;;;14.65;6.60;;;32.50;98.80;;;;;;4966921;28;21251;-76
2022/07/30 12:04:19;;;;;;;15.35;6.88;;;32.40;98.80;;;;;;4965639;28;20772;-76
2022/07/30 12:06:47;;;;;;;14.52;6.93;;;32.30;99.10;;;;;;4964519;28;20577;-76
2022/07/30 12:09:28;;;;;;;13.77;7.00;;;32.30;99.20;;;;;;4962982;28;21060;-76
2022/07/30 12:11:56;;;;;;;13.38;6.85;;;32.20;99.10;;;;;;4963678;28;20791;-76
2022/07/30 12:14:23;;;;;;;13.90;7.28;;;32.30;99.10;;;;;;4963319;28;20403;-76
2022/07/30 12:16:52;;;;;;;13.63;6.88;;;32.20;99.50;;;;;;4961431;28;20202;-76
2022/07/30 12:19:20;;;;;;;15.13;8.25;;;32.10;99.70;;;;;;4952833;28;20209;-76
2022/07/30 12:21:46;;;;;;;11.27;6.38;;;32.10;99.60;;;;;;4952824;28;20222;-76
2022/07/30 12:24:13;;;;;;;13.32;7.60;;;32.00;99.60;;;;;;4956176;28;20613;-76
2022/07/30 12:26:40;;;;;;;16.83;6.97;;;31.90;99.70;;;;;;4946766;28;20310;-76
2022/07/30 12:29:12;;;;;;;10.88;7.22;;;31.90;99.90;;;;;;4964898;28;20218;-76
2022/07/30 12:31:40;;;;;;;15.82;7.30;;;31.70;99.90;;;;;;4984288;28;20628;-77
2022/07/30 12:34:22;;;;;;;14.35;7.93;;;31.60;99.90;;;;;;4972265;28;20306;-76
2022/07/30 12:36:49;;;;;;;15.23;7.25;;;31.60;99.90;;;;;;4962846;28;20214;-76
2022/07/30 12:39:23;;;;;;;13.95;7.53;;;31.50;99.90;;;;;;4946724;28;20293;-76
2022/07/30 12:41:52;;;;;;;16.48;7.38;;;31.60;99.90;;;;;;4946374;28;20252;-76
2022/07/30 12:44:39;;;;;;;14.68;6.90;;;31.60;99.90;;;;;;4963243;28;20634;-76
2022/07/30 12:47:24;;;;;;;13.68;6.90;;;31.50;99.90;;;;;;4962514;28;20210;-76
2022/07/30 12:50:00;;;;;;;11.48;6.82;;;31.40;99.90;;;;;;4945920;28;20850;-76
2022/07/30 12:52:29;;;;;;;18.75;6.97;;;31.60;99.90;;;;;;4961531;28;20209;-76
2022/07/30 12:55:11;;;;;;;13.70;6.78;;;31.80;99.90;;;;;;4946328;28;21018;-76
2022/07/30 12:58:02;;;;;;;13.80;6.72;;;31.80;99.90;;;;;;4962644;28;20201;-75
2022/07/30 13:00:49;;;;;;;18.73;7.22;;;31.90;99.90;;;;;;4963154;28;21259;-76
2022/07/30 13:03:26;;;;;;;15.38;7.50;;;32.00;99.90;;;;;;4959653;28;20206;-76